sensor_id;sensor_type;location;lat;lon;timestamp;P1;durP1;ratioP1;P2;durP2;ratioP2
70576;SDS011;58138;43.138;24.702;2023-04-03T00:01:12;6.07;;;2.95;;
70576;SDS011;58138;43.138;24.702;2023-04-03T00:03:38;3.72;;;2.70;;
70576;SDS011;58138;43.138;24.702;2023-04-03T00:06:04;4.20;;;2.42;;
70576;SDS011;58138;43.138;24.702;2023-04-03T00:08:34;4.10;;;3.00;;
70576;SDS011;58138;43.138;24.702;2023-04-03T00:11:00;6.53;;;2.80;;
70576;SDS011;58138;43.138;24.702;2023-04-03T00:13:26;5.43;;;2.78;;
70576;SDS011;58138;43.138;24.702;2023-04-03T00:15:52;10.60;;;2.97;;
70576;SDS011;58138;43.138;24.702;2023-04-03T00:18:18;3.70;;;2.92;;
70576;SDS011;58138;43.138;24.702;2023-04-03T00:20:44;4.38;;;2.90;;
70576;SDS011;58138;43.138;24.702;2023-04-03T00:23:09;3.92;;;2.60;;
70576;SDS011;58138;43.138;24.702;2023-04-03T00:25:35;3.28;;;2.72;;
70576;SDS011;58138;43.138;24.702;2023-04-03T00:28:02;4.78;;;3.15;;
70576;SDS011;58138;43.138;24.702;2023-04-03T00:30:28;4.32;;;2.65;;
70576;SDS011;58138;43.138;24.702;2023-04-03T00:32:53;3.08;;;2.63;;
70576;SDS011;58138;43.138;24.702;2023-04-03T00:35:20;3.85;;;2.70;;
70576;SDS011;58138;43.138;24.702;2023-04-03T00:37:46;3.80;;;2.80;;
70576;SDS011;58138;43.138;24.702;2023-04-03T00:40:13;3.50;;;2.42;;
70576;SDS011;58138;43.138;24.702;2023-04-03T00:42:40;4.88;;;3.00;;
70576;SDS011;58138;43.138;24.702;2023-04-03T00:47:48;6.90;;;2.88;;
70576;SDS011;58138;43.138;24.702;2023-04-03T00:50:14;3.95;;;3.00;;
70576;SDS011;58138;43.138;24.702;2023-04-03T00:52:40;4.93;;;2.67;;
70576;SDS011;58138;43.138;24.702;2023-04-03T00:55:07;5.53;;;3.03;;
70576;SDS011;58138;43.138;24.702;2023-04-03T00:57:33;7.22;;;2.95;;
70576;SDS011;58138;43.138;24.702;2023-04-03T01:00:05;6.15;;;2.85;;
70576;SDS011;58138;43.138;24.702;2023-04-03T01:02:32;9.07;;;3.38;;
70576;SDS011;58138;43.138;24.702;2023-04-03T01:04:58;11.38;;;3.80;;
70576;SDS011;58138;43.138;24.702;2023-04-03T01:07:26;8.18;;;3.20;;
70576;SDS011;58138;43.138;24.702;2023-04-03T01:09:58;8.32;;;3.40;;
70576;SDS011;58138;43.138;24.702;2023-04-03T01:12:28;3.95;;;2.60;;
70576;SDS011;58138;43.138;24.702;2023-04-03T01:14:56;5.60;;;2.97;;
70576;SDS011;58138;43.138;24.702;2023-04-03T01:17:30;4.93;;;2.90;;
70576;SDS011;58138;43.138;24.702;2023-04-03T01:22:34;3.10;;;2.58;;
70576;SDS011;58138;43.138;24.702;2023-04-03T01:25:06;9.23;;;3.00;;
70576;SDS011;58138;43.138;24.702;2023-04-03T01:27:32;3.35;;;2.95;;
70576;SDS011;58138;43.138;24.702;2023-04-03T01:29:57;4.55;;;2.80;;
70576;SDS011;58138;43.138;24.702;2023-04-03T01:32:23;3.67;;;2.40;;
70576;SDS011;58138;43.138;24.702;2023-04-03T01:34:49;4.38;;;3.00;;
70576;SDS011;58138;43.138;24.702;2023-04-03T01:37:14;15.30;;;3.80;;
70576;SDS011;58138;43.138;24.702;2023-04-03T01:39:40;10.65;;;3.75;;
70576;SDS011;58138;43.138;24.702;2023-04-03T01:42:06;9.70;;;3.10;;
70576;SDS011;58138;43.138;24.702;2023-04-03T01:44:31;6.40;;;2.97;;
70576;SDS011;58138;43.138;24.702;2023-04-03T01:46:57;11.55;;;2.90;;
70576;SDS011;58138;43.138;24.702;2023-04-03T01:49:23;7.00;;;2.90;;
70576;SDS011;58138;43.138;24.702;2023-04-03T01:51:48;8.52;;;3.10;;
70576;SDS011;58138;43.138;24.702;2023-04-03T01:54:14;8.63;;;3.00;;
70576;SDS011;58138;43.138;24.702;2023-04-03T01:56:39;4.97;;;2.97;;
70576;SDS011;58138;43.138;24.702;2023-04-03T01:59:05;4.45;;;2.90;;
70576;SDS011;58138;43.138;24.702;2023-04-03T02:01:31;3.50;;;2.85;;
70576;SDS011;58138;43.138;24.702;2023-04-03T02:03:56;4.70;;;2.97;;
70576;SDS011;58138;43.138;24.702;2023-04-03T02:06:22;3.50;;;3.00;;
70576;SDS011;58138;43.138;24.702;2023-04-03T02:08:48;4.97;;;2.60;;
70576;SDS011;58138;43.138;24.702;2023-04-03T02:11:13;4.28;;;3.35;;
70576;SDS011;58138;43.138;24.702;2023-04-03T02:13:39;10.60;;;4.40;;
70576;SDS011;58138;43.138;24.702;2023-04-03T02:16:11;6.20;;;3.70;;
70576;SDS011;58138;43.138;24.702;2023-04-03T02:18:38;5.63;;;4.00;;
70576;SDS011;58138;43.138;24.702;2023-04-03T02:21:04;6.00;;;3.40;;
70576;SDS011;58138;43.138;24.702;2023-04-03T02:23:30;4.72;;;3.20;;
70576;SDS011;58138;43.138;24.702;2023-04-03T02:26:03;3.53;;;3.03;;
70576;SDS011;58138;43.138;24.702;2023-04-03T02:28:38;5.57;;;3.25;;
70576;SDS011;58138;43.138;24.702;2023-04-03T02:31:04;5.30;;;3.30;;
70576;SDS011;58138;43.138;24.702;2023-04-03T02:33:31;6.65;;;3.22;;
70576;SDS011;58138;43.138;24.702;2023-04-03T02:35:57;3.97;;;2.40;;
70576;SDS011;58138;43.138;24.702;2023-04-03T02:38:24;3.83;;;2.70;;
70576;SDS011;58138;43.138;24.702;2023-04-03T02:40:50;3.83;;;2.65;;
70576;SDS011;58138;43.138;24.702;2023-04-03T02:43:16;5.18;;;2.75;;
70576;SDS011;58138;43.138;24.702;2023-04-03T02:45:42;3.33;;;2.65;;
70576;SDS011;58138;43.138;24.702;2023-04-03T02:48:07;5.03;;;2.75;;
70576;SDS011;58138;43.138;24.702;2023-04-03T02:50:33;6.90;;;2.83;;
70576;SDS011;58138;43.138;24.702;2023-04-03T02:52:58;4.07;;;2.83;;
70576;SDS011;58138;43.138;24.702;2023-04-03T02:55:24;3.08;;;2.47;;
70576;SDS011;58138;43.138;24.702;2023-04-03T02:57:50;3.00;;;2.60;;
70576;SDS011;58138;43.138;24.702;2023-04-03T03:00:16;4.55;;;3.00;;
70576;SDS011;58138;43.138;24.702;2023-04-03T03:02:42;6.22;;;2.80;;
70576;SDS011;58138;43.138;24.702;2023-04-03T03:05:07;3.38;;;2.50;;
70576;SDS011;58138;43.138;24.702;2023-04-03T03:07:33;3.28;;;2.75;;
70576;SDS011;58138;43.138;24.702;2023-04-03T03:09:59;4.22;;;2.70;;
70576;SDS011;58138;43.138;24.702;2023-04-03T03:12:24;5.30;;;3.05;;
70576;SDS011;58138;43.138;24.702;2023-04-03T03:14:50;4.88;;;3.78;;
70576;SDS011;58138;43.138;24.702;2023-04-03T03:17:16;6.28;;;3.55;;
70576;SDS011;58138;43.138;24.702;2023-04-03T03:19:42;4.25;;;3.10;;
70576;SDS011;58138;43.138;24.702;2023-04-03T03:22:08;11.68;;;6.57;;
70576;SDS011;58138;43.138;24.702;2023-04-03T03:24:33;7.15;;;4.40;;
70576;SDS011;58138;43.138;24.702;2023-04-03T03:26:59;4.75;;;3.95;;
70576;SDS011;58138;43.138;24.702;2023-04-03T03:29:25;8.65;;;3.80;;
70576;SDS011;58138;43.138;24.702;2023-04-03T03:31:51;4.57;;;2.35;;
70576;SDS011;58138;43.138;24.702;2023-04-03T03:34:17;5.07;;;2.45;;
70576;SDS011;58138;43.138;24.702;2023-04-03T03:36:42;15.88;;;9.18;;
70576;SDS011;58138;43.138;24.702;2023-04-03T03:39:09;9.70;;;4.05;;
70576;SDS011;58138;43.138;24.702;2023-04-03T03:41:35;10.52;;;6.95;;
70576;SDS011;58138;43.138;24.702;2023-04-03T03:44:00;10.82;;;5.68;;
70576;SDS011;58138;43.138;24.702;2023-04-03T03:46:26;8.63;;;4.32;;
70576;SDS011;58138;43.138;24.702;2023-04-03T03:48:52;8.60;;;4.25;;
70576;SDS011;58138;43.138;24.702;2023-04-03T03:51:17;7.40;;;5.00;;
70576;SDS011;58138;43.138;24.702;2023-04-03T03:53:43;6.95;;;4.18;;
70576;SDS011;58138;43.138;24.702;2023-04-03T03:56:09;11.52;;;5.40;;
70576;SDS011;58138;43.138;24.702;2023-04-03T03:58:35;23.30;;;11.23;;
70576;SDS011;58138;43.138;24.702;2023-04-03T04:01:01;17.33;;;9.48;;
70576;SDS011;58138;43.138;24.702;2023-04-03T04:03:30;22.77;;;11.73;;
70576;SDS011;58138;43.138;24.702;2023-04-03T04:05:56;30.95;;;10.88;;
70576;SDS011;58138;43.138;24.702;2023-04-03T04:08:22;21.80;;;10.13;;
70576;SDS011;58138;43.138;24.702;2023-04-03T04:10:48;21.00;;;11.02;;
70576;SDS011;58138;43.138;24.702;2023-04-03T04:13:14;31.40;;;8.82;;
70576;SDS011;58138;43.138;24.702;2023-04-03T04:15:39;34.13;;;11.48;;
70576;SDS011;58138;43.138;24.702;2023-04-03T04:18:05;27.33;;;9.43;;
70576;SDS011;58138;43.138;24.702;2023-04-03T04:20:31;4.93;;;3.25;;
70576;SDS011;58138;43.138;24.702;2023-04-03T04:22:57;6.63;;;3.97;;
70576;SDS011;58138;43.138;24.702;2023-04-03T04:25:22;5.68;;;3.10;;
70576;SDS011;58138;43.138;24.702;2023-04-03T04:27:48;8.55;;;4.90;;
70576;SDS011;58138;43.138;24.702;2023-04-03T04:30:13;6.32;;;4.30;;
70576;SDS011;58138;43.138;24.702;2023-04-03T04:32:39;7.68;;;3.50;;
70576;SDS011;58138;43.138;24.702;2023-04-03T04:35:05;3.72;;;3.08;;
70576;SDS011;58138;43.138;24.702;2023-04-03T04:37:31;7.38;;;4.10;;
70576;SDS011;58138;43.138;24.702;2023-04-03T04:39:57;6.18;;;4.03;;
70576;SDS011;58138;43.138;24.702;2023-04-03T04:42:22;4.22;;;2.95;;
70576;SDS011;58138;43.138;24.702;2023-04-03T04:44:48;16.42;;;5.72;;
70576;SDS011;58138;43.138;24.702;2023-04-03T04:47:13;9.40;;;4.45;;
70576;SDS011;58138;43.138;24.702;2023-04-03T04:49:39;16.55;;;9.05;;
70576;SDS011;58138;43.138;24.702;2023-04-03T04:52:05;18.35;;;10.27;;
70576;SDS011;58138;43.138;24.702;2023-04-03T04:54:31;19.90;;;8.30;;
70576;SDS011;58138;43.138;24.702;2023-04-03T04:56:57;14.57;;;7.88;;
70576;SDS011;58138;43.138;24.702;2023-04-03T04:59:23;11.23;;;6.25;;
70576;SDS011;58138;43.138;24.702;2023-04-03T05:01:48;9.02;;;4.00;;
70576;SDS011;58138;43.138;24.702;2023-04-03T05:04:14;5.20;;;3.78;;
70576;SDS011;58138;43.138;24.702;2023-04-03T05:06:40;8.70;;;4.55;;
70576;SDS011;58138;43.138;24.702;2023-04-03T05:09:06;14.60;;;5.72;;
70576;SDS011;58138;43.138;24.702;2023-04-03T05:11:31;7.55;;;4.38;;
70576;SDS011;58138;43.138;24.702;2023-04-03T05:13:57;8.85;;;4.30;;
70576;SDS011;58138;43.138;24.702;2023-04-03T05:16:23;12.73;;;4.25;;
70576;SDS011;58138;43.138;24.702;2023-04-03T05:18:48;15.10;;;4.90;;
70576;SDS011;58138;43.138;24.702;2023-04-03T05:21:14;13.25;;;5.95;;
70576;SDS011;58138;43.138;24.702;2023-04-03T05:23:40;12.50;;;5.40;;
70576;SDS011;58138;43.138;24.702;2023-04-03T05:26:05;9.02;;;4.25;;
70576;SDS011;58138;43.138;24.702;2023-04-03T05:28:32;30.70;;;18.25;;
70576;SDS011;58138;43.138;24.702;2023-04-03T05:30:58;21.65;;;13.70;;
70576;SDS011;58138;43.138;24.702;2023-04-03T05:33:24;16.35;;;9.77;;
70576;SDS011;58138;43.138;24.702;2023-04-03T05:35:51;9.38;;;5.93;;
70576;SDS011;58138;43.138;24.702;2023-04-03T05:38:18;5.43;;;3.97;;
70576;SDS011;58138;43.138;24.702;2023-04-03T05:40:43;12.02;;;7.82;;
70576;SDS011;58138;43.138;24.702;2023-04-03T05:43:09;12.40;;;6.22;;
70576;SDS011;58138;43.138;24.702;2023-04-03T05:45:35;6.13;;;4.50;;
70576;SDS011;58138;43.138;24.702;2023-04-03T05:48:00;8.85;;;5.85;;
70576;SDS011;58138;43.138;24.702;2023-04-03T05:50:26;11.13;;;5.18;;
70576;SDS011;58138;43.138;24.702;2023-04-03T05:52:52;6.53;;;3.63;;
70576;SDS011;58138;43.138;24.702;2023-04-03T05:55:20;8.75;;;4.32;;
70576;SDS011;58138;43.138;24.702;2023-04-03T05:57:46;6.65;;;4.68;;
70576;SDS011;58138;43.138;24.702;2023-04-03T06:00:12;9.00;;;5.82;;
70576;SDS011;58138;43.138;24.702;2023-04-03T06:02:40;18.05;;;6.93;;
70576;SDS011;58138;43.138;24.702;2023-04-03T06:05:07;14.52;;;6.05;;
70576;SDS011;58138;43.138;24.702;2023-04-03T06:07:34;14.77;;;6.32;;
70576;SDS011;58138;43.138;24.702;2023-04-03T06:09:59;14.20;;;7.68;;
70576;SDS011;58138;43.138;24.702;2023-04-03T06:12:26;14.32;;;6.97;;
70576;SDS011;58138;43.138;24.702;2023-04-03T06:14:53;11.85;;;5.10;;
70576;SDS011;58138;43.138;24.702;2023-04-03T06:17:19;18.55;;;5.60;;
70576;SDS011;58138;43.138;24.702;2023-04-03T06:19:45;10.80;;;4.40;;
70576;SDS011;58138;43.138;24.702;2023-04-03T06:22:11;38.10;;;7.38;;
70576;SDS011;58138;43.138;24.702;2023-04-03T06:24:37;11.63;;;6.72;;
70576;SDS011;58138;43.138;24.702;2023-04-03T06:27:03;11.63;;;4.80;;
70576;SDS011;58138;43.138;24.702;2023-04-03T06:29:29;27.77;;;5.82;;
70576;SDS011;58138;43.138;24.702;2023-04-03T06:31:55;14.90;;;6.60;;
70576;SDS011;58138;43.138;24.702;2023-04-03T06:34:21;13.38;;;6.88;;
70576;SDS011;58138;43.138;24.702;2023-04-03T06:36:47;29.70;;;5.10;;
70576;SDS011;58138;43.138;24.702;2023-04-03T06:39:18;9.93;;;5.57;;
70576;SDS011;58138;43.138;24.702;2023-04-03T06:41:46;20.02;;;5.78;;
70576;SDS011;58138;43.138;24.702;2023-04-03T06:44:12;12.27;;;6.97;;
70576;SDS011;58138;43.138;24.702;2023-04-03T06:46:40;11.80;;;7.85;;
70576;SDS011;58138;43.138;24.702;2023-04-03T06:49:06;9.05;;;4.18;;
70576;SDS011;58138;43.138;24.702;2023-04-03T06:51:34;5.75;;;4.55;;
70576;SDS011;58138;43.138;24.702;2023-04-03T06:54:01;9.88;;;4.50;;
70576;SDS011;58138;43.138;24.702;2023-04-03T06:56:28;9.18;;;5.40;;
70576;SDS011;58138;43.138;24.702;2023-04-03T06:58:54;8.82;;;5.78;;
70576;SDS011;58138;43.138;24.702;2023-04-03T07:01:22;11.68;;;4.82;;
70576;SDS011;58138;43.138;24.702;2023-04-03T07:03:50;14.45;;;6.28;;
70576;SDS011;58138;43.138;24.702;2023-04-03T07:06:16;14.43;;;7.13;;
70576;SDS011;58138;43.138;24.702;2023-04-03T07:08:42;10.30;;;5.95;;
70576;SDS011;58138;43.138;24.702;2023-04-03T07:11:08;13.98;;;6.40;;
70576;SDS011;58138;43.138;24.702;2023-04-03T07:13:35;15.60;;;8.82;;
70576;SDS011;58138;43.138;24.702;2023-04-03T07:16:01;14.15;;;5.72;;
70576;SDS011;58138;43.138;24.702;2023-04-03T07:18:28;5.03;;;2.85;;
70576;SDS011;58138;43.138;24.702;2023-04-03T07:20:54;4.00;;;2.15;;
70576;SDS011;58138;43.138;24.702;2023-04-03T07:23:20;2.17;;;1.55;;
70576;SDS011;58138;43.138;24.702;2023-04-03T07:25:47;4.63;;;1.90;;
70576;SDS011;58138;43.138;24.702;2023-04-03T07:28:14;4.20;;;1.95;;
70576;SDS011;58138;43.138;24.702;2023-04-03T07:30:44;5.88;;;1.92;;
70576;SDS011;58138;43.138;24.702;2023-04-03T07:33:11;2.33;;;1.35;;
70576;SDS011;58138;43.138;24.702;2023-04-03T07:35:38;1.55;;;1.40;;
70576;SDS011;58138;43.138;24.702;2023-04-03T07:38:04;1.38;;;1.27;;
70576;SDS011;58138;43.138;24.702;2023-04-03T07:40:30;3.05;;;2.42;;
70576;SDS011;58138;43.138;24.702;2023-04-03T07:42:56;4.70;;;2.25;;
70576;SDS011;58138;43.138;24.702;2023-04-03T07:45:22;4.25;;;1.92;;
70576;SDS011;58138;43.138;24.702;2023-04-03T07:47:48;3.63;;;2.72;;
70576;SDS011;58138;43.138;24.702;2023-04-03T07:50:14;3.05;;;1.60;;
70576;SDS011;58138;43.138;24.702;2023-04-03T07:52:39;2.67;;;1.40;;
70576;SDS011;58138;43.138;24.702;2023-04-03T07:55:06;7.35;;;1.70;;
70576;SDS011;58138;43.138;24.702;2023-04-03T07:57:32;1.90;;;1.50;;
70576;SDS011;58138;43.138;24.702;2023-04-03T07:59:57;3.05;;;1.98;;
70576;SDS011;58138;43.138;24.702;2023-04-03T08:02:23;13.55;;;8.88;;
70576;SDS011;58138;43.138;24.702;2023-04-03T08:04:48;3.47;;;1.90;;
70576;SDS011;58138;43.138;24.702;2023-04-03T08:07:14;14.10;;;10.80;;
70576;SDS011;58138;43.138;24.702;2023-04-03T08:09:40;9.48;;;3.75;;
70576;SDS011;58138;43.138;24.702;2023-04-03T08:12:06;2.78;;;2.30;;
70576;SDS011;58138;43.138;24.702;2023-04-03T08:14:31;2.55;;;1.92;;
70576;SDS011;58138;43.138;24.702;2023-04-03T08:16:59;2.70;;;1.60;;
70576;SDS011;58138;43.138;24.702;2023-04-03T08:19:25;6.82;;;5.03;;
70576;SDS011;58138;43.138;24.702;2023-04-03T08:21:51;2.08;;;1.35;;
70576;SDS011;58138;43.138;24.702;2023-04-03T08:24:18;5.63;;;3.20;;
70576;SDS011;58138;43.138;24.702;2023-04-03T08:26:43;12.80;;;9.73;;
70576;SDS011;58138;43.138;24.702;2023-04-03T08:29:09;20.10;;;4.80;;
70576;SDS011;58138;43.138;24.702;2023-04-03T08:31:35;6.18;;;1.95;;
70576;SDS011;58138;43.138;24.702;2023-04-03T08:34:01;4.88;;;1.63;;
70576;SDS011;58138;43.138;24.702;2023-04-03T08:36:28;4.15;;;1.77;;
70576;SDS011;58138;43.138;24.702;2023-04-03T08:38:55;4.55;;;1.08;;
70576;SDS011;58138;43.138;24.702;2023-04-03T08:47:19;1.02;;;0.93;;
70576;SDS011;58138;43.138;24.702;2023-04-03T08:49:39;4.30;;;1.25;;
70576;SDS011;58138;43.138;24.702;2023-04-03T08:52:12;1.10;;;1.00;;
70576;SDS011;58138;43.138;24.702;2023-04-03T08:54:46;1.30;;;1.00;;
70576;SDS011;58138;43.138;24.702;2023-04-03T08:57:14;2.08;;;1.27;;
70576;SDS011;58138;43.138;24.702;2023-04-03T08:59:40;0.90;;;0.80;;
70576;SDS011;58138;43.138;24.702;2023-04-03T09:02:23;1.10;;;1.00;;
70576;SDS011;58138;43.138;24.702;2023-04-03T09:04:52;3.17;;;1.30;;
70576;SDS011;58138;43.138;24.702;2023-04-03T09:07:29;11.52;;;9.50;;
70576;SDS011;58138;43.138;24.702;2023-04-03T09:09:59;7.07;;;1.20;;
70576;SDS011;58138;43.138;24.702;2023-04-03T09:12:39;0.60;;;0.60;;
70576;SDS011;58138;43.138;24.702;2023-04-03T09:15:23;3.75;;;1.00;;
70576;SDS011;58138;43.138;24.702;2023-04-03T09:17:59;2.22;;;0.95;;
70576;SDS011;58138;43.138;24.702;2023-04-03T09:20:37;3.22;;;0.90;;
70576;SDS011;58138;43.138;24.702;2023-04-03T09:23:33;1.77;;;1.30;;
70576;SDS011;58138;43.138;24.702;2023-04-03T09:26:09;1.00;;;0.93;;
70576;SDS011;58138;43.138;24.702;2023-04-03T09:28:46;2.13;;;0.90;;
70576;SDS011;58138;43.138;24.702;2023-04-03T09:31:58;3.45;;;1.27;;
70576;SDS011;58138;43.138;24.702;2023-04-03T09:34:06;2.67;;;2.47;;
70576;SDS011;58138;43.138;24.702;2023-04-03T09:36:40;1.80;;;1.70;;
70576;SDS011;58138;43.138;24.702;2023-04-03T09:39:15;0.90;;;0.80;;
70576;SDS011;58138;43.138;24.702;2023-04-03T09:41:43;1.55;;;1.45;;
70576;SDS011;58138;43.138;24.702;2023-04-03T09:44:23;1.23;;;1.10;;
70576;SDS011;58138;43.138;24.702;2023-04-03T09:46:51;2.10;;;0.90;;
70576;SDS011;58138;43.138;24.702;2023-04-03T09:49:17;0.60;;;0.60;;
70576;SDS011;58138;43.138;24.702;2023-04-03T09:51:42;1.50;;;1.10;;
70576;SDS011;58138;43.138;24.702;2023-04-03T09:57:01;19.35;;;2.20;;
70576;SDS011;58138;43.138;24.702;2023-04-03T09:59:30;6.90;;;1.00;;
70576;SDS011;58138;43.138;24.702;2023-04-03T10:01:57;1.58;;;0.98;;
70576;SDS011;58138;43.138;24.702;2023-04-03T10:04:43;1.65;;;1.52;;
70576;SDS011;58138;43.138;24.702;2023-04-03T10:10:36;0.80;;;0.80;;
70576;SDS011;58138;43.138;24.702;2023-04-03T10:18:45;1.17;;;0.70;;
70576;SDS011;58138;43.138;24.702;2023-04-03T10:21:14;1.63;;;0.85;;
70576;SDS011;58138;43.138;24.702;2023-04-03T10:26:58;0.68;;;0.68;;
70576;SDS011;58138;43.138;24.702;2023-04-03T10:34:45;2.55;;;1.10;;
70576;SDS011;58138;43.138;24.702;2023-04-03T10:38:01;1.38;;;1.27;;
70576;SDS011;58138;43.138;24.702;2023-04-03T10:40:12;4.07;;;1.02;;
70576;SDS011;58138;43.138;24.702;2023-04-03T10:48:30;2.95;;;1.10;;
70576;SDS011;58138;43.138;24.702;2023-04-03T10:51:06;4.60;;;1.50;;
70576;SDS011;58138;43.138;24.702;2023-04-03T10:53:56;1.20;;;1.10;;
70576;SDS011;58138;43.138;24.702;2023-04-03T11:01:55;0.85;;;0.80;;
70576;SDS011;58138;43.138;24.702;2023-04-03T11:04:22;2.58;;;1.70;;
70576;SDS011;58138;43.138;24.702;2023-04-03T11:07:00;6.60;;;3.40;;
70576;SDS011;58138;43.138;24.702;2023-04-03T11:09:30;6.05;;;2.22;;
70576;SDS011;58138;43.138;24.702;2023-04-03T11:12:06;2.20;;;0.90;;
70576;SDS011;58138;43.138;24.702;2023-04-03T11:14:40;8.65;;;1.30;;
70576;SDS011;58138;43.138;24.702;2023-04-03T11:22:36;7.65;;;1.98;;
70576;SDS011;58138;43.138;24.702;2023-04-03T11:25:08;2.10;;;1.65;;
70576;SDS011;58138;43.138;24.702;2023-04-03T11:27:56;1.85;;;1.23;;
70576;SDS011;58138;43.138;24.702;2023-04-03T11:30:25;1.13;;;1.02;;
70576;SDS011;58138;43.138;24.702;2023-04-03T11:35:55;9.77;;;1.80;;
70576;SDS011;58138;43.138;24.702;2023-04-03T11:38:28;8.20;;;3.00;;
70576;SDS011;58138;43.138;24.702;2023-04-03T11:40:56;29.58;;;20.38;;
70576;SDS011;58138;43.138;24.702;2023-04-03T11:43:29;28.33;;;6.22;;
70576;SDS011;58138;43.138;24.702;2023-04-03T11:45:59;26.27;;;17.45;;
70576;SDS011;58138;43.138;24.702;2023-04-03T11:51:02;11.83;;;4.03;;
70576;SDS011;58138;43.138;24.702;2023-04-03T11:53:45;9.15;;;2.95;;
70576;SDS011;58138;43.138;24.702;2023-04-03T12:01:51;26.63;;;9.27;;
70576;SDS011;58138;43.138;24.702;2023-04-03T12:04:20;7.38;;;4.88;;
70576;SDS011;58138;43.138;24.702;2023-04-03T12:06:50;4.13;;;2.05;;
70576;SDS011;58138;43.138;24.702;2023-04-03T12:09:54;7.75;;;2.58;;
70576;SDS011;58138;43.138;24.702;2023-04-03T12:21:05;2.47;;;2.15;;
70576;SDS011;58138;43.138;24.702;2023-04-03T12:23:35;5.38;;;2.08;;
70576;SDS011;58138;43.138;24.702;2023-04-03T12:26:21;6.07;;;1.98;;
70576;SDS011;58138;43.138;24.702;2023-04-03T12:28:50;8.18;;;1.80;;
70576;SDS011;58138;43.138;24.702;2023-04-03T12:31:17;8.00;;;1.90;;
70576;SDS011;58138;43.138;24.702;2023-04-03T12:33:52;8.45;;;2.65;;
70576;SDS011;58138;43.138;24.702;2023-04-03T12:39:36;8.02;;;3.60;;
70576;SDS011;58138;43.138;24.702;2023-04-03T12:42:26;4.75;;;2.15;;
70576;SDS011;58138;43.138;24.702;2023-04-03T12:45:16;2.55;;;1.70;;
70576;SDS011;58138;43.138;24.702;2023-04-03T12:47:45;7.85;;;2.83;;
70576;SDS011;58138;43.138;24.702;2023-04-03T12:55:31;6.30;;;3.80;;
70576;SDS011;58138;43.138;24.702;2023-04-03T12:57:57;4.32;;;2.13;;
70576;SDS011;58138;43.138;24.702;2023-04-03T13:00:42;5.00;;;3.38;;
70576;SDS011;58138;43.138;24.702;2023-04-03T13:03:19;9.15;;;3.55;;
70576;SDS011;58138;43.138;24.702;2023-04-03T13:05:47;8.82;;;2.40;;
70576;SDS011;58138;43.138;24.702;2023-04-03T13:08:13;11.57;;;6.57;;
70576;SDS011;58138;43.138;24.702;2023-04-03T13:13:30;7.60;;;2.95;;
70576;SDS011;58138;43.138;24.702;2023-04-03T13:15:56;4.47;;;3.03;;
70576;SDS011;58138;43.138;24.702;2023-04-03T13:20:56;4.53;;;2.53;;
70576;SDS011;58138;43.138;24.702;2023-04-03T13:23:24;4.03;;;2.17;;
70576;SDS011;58138;43.138;24.702;2023-04-03T13:25:50;7.85;;;5.50;;
70576;SDS011;58138;43.138;24.702;2023-04-03T13:28:20;4.68;;;2.53;;
70576;SDS011;58138;43.138;24.702;2023-04-03T13:33:43;15.10;;;10.00;;
70576;SDS011;58138;43.138;24.702;2023-04-03T13:36:19;9.10;;;5.10;;
70576;SDS011;58138;43.138;24.702;2023-04-03T13:38:56;10.90;;;8.05;;
70576;SDS011;58138;43.138;24.702;2023-04-03T13:41:35;10.10;;;8.05;;
70576;SDS011;58138;43.138;24.702;2023-04-03T13:46:49;6.95;;;5.80;;
70576;SDS011;58138;43.138;24.702;2023-04-03T13:51:51;5.03;;;3.30;;
70576;SDS011;58138;43.138;24.702;2023-04-03T13:54:22;7.32;;;6.22;;
70576;SDS011;58138;43.138;24.702;2023-04-03T13:56:54;7.22;;;6.47;;
70576;SDS011;58138;43.138;24.702;2023-04-03T13:59:40;9.25;;;6.25;;
70576;SDS011;58138;43.138;24.702;2023-04-03T14:07:08;4.78;;;4.25;;
70576;SDS011;58138;43.138;24.702;2023-04-03T14:09:35;5.65;;;4.10;;
70576;SDS011;58138;43.138;24.702;2023-04-03T14:12:35;11.68;;;9.63;;
70576;SDS011;58138;43.138;24.702;2023-04-03T14:14:55;6.20;;;5.47;;
70576;SDS011;58138;43.138;24.702;2023-04-03T14:17:22;9.43;;;7.78;;
70576;SDS011;58138;43.138;24.702;2023-04-03T14:19:50;5.03;;;3.88;;
70576;SDS011;58138;43.138;24.702;2023-04-03T14:24:44;6.20;;;5.60;;
70576;SDS011;58138;43.138;24.702;2023-04-03T14:27:53;9.68;;;8.07;;
70576;SDS011;58138;43.138;24.702;2023-04-03T14:30:29;8.68;;;5.25;;
70576;SDS011;58138;43.138;24.702;2023-04-03T14:32:55;12.45;;;9.90;;
70576;SDS011;58138;43.138;24.702;2023-04-03T14:35:21;5.65;;;4.65;;
70576;SDS011;58138;43.138;24.702;2023-04-03T14:37:48;11.70;;;8.82;;
70576;SDS011;58138;43.138;24.702;2023-04-03T14:40:19;11.40;;;8.32;;
70576;SDS011;58138;43.138;24.702;2023-04-03T14:42:56;26.02;;;20.10;;
70576;SDS011;58138;43.138;24.702;2023-04-03T14:45:22;27.55;;;19.73;;
70576;SDS011;58138;43.138;24.702;2023-04-03T14:47:49;20.90;;;13.68;;
70576;SDS011;58138;43.138;24.702;2023-04-03T14:50:24;32.30;;;19.73;;
70576;SDS011;58138;43.138;24.702;2023-04-03T14:52:52;82.38;;;37.17;;
70576;SDS011;58138;43.138;24.702;2023-04-03T14:55:20;31.02;;;19.88;;
70576;SDS011;58138;43.138;24.702;2023-04-03T14:57:47;14.48;;;10.93;;
70576;SDS011;58138;43.138;24.702;2023-04-03T15:00:14;14.43;;;11.45;;
70576;SDS011;58138;43.138;24.702;2023-04-03T15:02:41;24.40;;;18.52;;
70576;SDS011;58138;43.138;24.702;2023-04-03T15:05:08;22.55;;;17.25;;
70576;SDS011;58138;43.138;24.702;2023-04-03T15:07:36;23.10;;;14.88;;
70576;SDS011;58138;43.138;24.702;2023-04-03T15:10:06;20.70;;;13.35;;
70576;SDS011;58138;43.138;24.702;2023-04-03T15:12:39;24.27;;;16.38;;
70576;SDS011;58138;43.138;24.702;2023-04-03T15:15:05;16.67;;;11.20;;
70576;SDS011;58138;43.138;24.702;2023-04-03T15:17:31;15.50;;;11.73;;
70576;SDS011;58138;43.138;24.702;2023-04-03T15:19:57;18.83;;;13.32;;
70576;SDS011;58138;43.138;24.702;2023-04-03T15:22:23;15.40;;;12.18;;
70576;SDS011;58138;43.138;24.702;2023-04-03T15:24:49;14.13;;;11.02;;
70576;SDS011;58138;43.138;24.702;2023-04-03T15:27:15;15.52;;;10.07;;
70576;SDS011;58138;43.138;24.702;2023-04-03T15:29:41;20.55;;;15.95;;
70576;SDS011;58138;43.138;24.702;2023-04-03T15:32:07;39.17;;;26.05;;
70576;SDS011;58138;43.138;24.702;2023-04-03T15:34:34;38.00;;;23.58;;
70576;SDS011;58138;43.138;24.702;2023-04-03T15:37:00;44.42;;;26.75;;
70576;SDS011;58138;43.138;24.702;2023-04-03T15:39:26;33.22;;;20.67;;
70576;SDS011;58138;43.138;24.702;2023-04-03T15:41:52;29.88;;;19.80;;
70576;SDS011;58138;43.138;24.702;2023-04-03T15:44:19;26.27;;;16.67;;
70576;SDS011;58138;43.138;24.702;2023-04-03T15:46:48;14.73;;;9.98;;
70576;SDS011;58138;43.138;24.702;2023-04-03T15:49:16;25.33;;;12.93;;
70576;SDS011;58138;43.138;24.702;2023-04-03T15:51:45;17.48;;;13.52;;
70576;SDS011;58138;43.138;24.702;2023-04-03T15:54:10;17.77;;;13.60;;
70576;SDS011;58138;43.138;24.702;2023-04-03T15:56:36;14.18;;;11.70;;
70576;SDS011;58138;43.138;24.702;2023-04-03T15:59:02;16.40;;;12.15;;
70576;SDS011;58138;43.138;24.702;2023-04-03T16:01:28;12.18;;;9.85;;
70576;SDS011;58138;43.138;24.702;2023-04-03T16:03:54;13.85;;;9.35;;
70576;SDS011;58138;43.138;24.702;2023-04-03T16:06:20;18.73;;;15.20;;
70576;SDS011;58138;43.138;24.702;2023-04-03T16:08:46;18.70;;;14.02;;
70576;SDS011;58138;43.138;24.702;2023-04-03T16:11:12;40.03;;;23.58;;
70576;SDS011;58138;43.138;24.702;2023-04-03T16:13:38;26.50;;;16.35;;